Time;durP1;ratioP1;P1;durP2;ratioP2;P2;SDS_P1;SDS_P2;PMS_P1;PMS_P2;Temp;Humidity;BMP_temperature;BMP_pressure;BME280_temperature;BME280_humidity;BME280_pressure;Samples;Min_cycle;Max_cycle;Signal;HPM_P1;HPM_P2
2022/12/07 00:01:51;;;;;;;25.40;12.00;;;;;;;;;;5000154;28;20211;-62
2022/12/07 00:04:18;;;;;;;21.73;13.00;;;;;;;;;;4987853;28;20226;-63
2022/12/07 00:06:51;;;;;;;32.33;13.57;;;;;;;;;;4988626;28;20214;-62
2022/12/07 00:09:19;;;;;;;34.87;13.33;;;;;;;;;;4999556;28;20214;-62
2022/12/07 00:11:49;;;;;;;101.70;14.77;;;;;;;;;;4985865;28;20249;-62
2022/12/07 00:14:17;;;;;;;136.10;16.27;;;;;;;;;;4994893;28;20318;-63
2022/12/07 00:16:45;;;;;;;81.30;13.07;;;;;;;;;;4994696;28;20265;-64
2022/12/07 00:19:13;;;;;;;52.83;14.13;;;;;;;;;;5009860;28;20245;-63
2022/12/07 00:21:40;;;;;;;102.47;14.83;;;;;;;;;;5011698;28;20258;-62
2022/12/07 00:24:08;;;;;;;29.20;12.97;;;;;;;;;;4992395;28;20227;-62
2022/12/07 00:26:36;;;;;;;47.57;13.43;;;;;;;;;;4992224;28;20253;-64
2022/12/07 00:29:05;;;;;;;20.77;12.27;;;;;;;;;;4982329;28;20781;-64
2022/12/07 00:31:35;;;;;;;25.83;12.57;;;;;;;;;;4977237;28;20245;-63
2022/12/07 00:34:03;;;;;;;21.47;12.37;;;;;;;;;;4989130;28;20231;-63
2022/12/07 00:36:31;;;;;;;32.83;16.33;;;;;;;;;;5006960;28;20230;-64
2022/12/07 00:38:59;;;;;;;62.27;27.43;;;;;;;;;;4995444;28;20581;-64
2022/12/07 00:41:29;;;;;;;44.03;25.23;;;;;;;;;;4985223;28;20215;-64
2022/12/07 00:43:56;;;;;;;20.80;13.00;;;;;;;;;;4992549;28;20258;-62
2022/12/07 00:46:25;;;;;;;86.87;35.17;;;;;;;;;;4987294;28;20280;-62
2022/12/07 00:48:53;;;;;;;150.60;53.63;;;;;;;;;;4986032;28;20215;-62
2022/12/07 00:51:22;;;;;;;55.93;24.07;;;;;;;;;;4992051;28;20326;-62
2022/12/07 00:53:50;;;;;;;41.43;20.00;;;;;;;;;;5002683;28;20223;-63
2022/12/07 00:56:17;;;;;;;179.70;70.20;;;;;;;;;;5006445;28;20291;-62
2022/12/07 00:58:49;;;;;;;21.23;11.83;;;;;;;;;;4982384;28;20752;-62
2022/12/07 01:01:17;;;;;;;26.87;14.43;;;;;;;;;;4982435;28;20212;-62
2022/12/07 01:03:44;;;;;;;25.67;14.80;;;;;;;;;;4993884;28;20238;-63
2022/12/07 01:06:14;;;;;;;22.07;11.93;;;;;;;;;;5002111;28;20656;-62
2022/12/07 01:08:42;;;;;;;39.73;23.07;;;;;;;;;;5011756;28;20295;-62
2022/12/07 01:11:12;;;;;;;22.33;13.77;;;;;;;;;;5004187;28;20305;-62
2022/12/07 01:13:39;;;;;;;39.00;18.53;;;;;;;;;;5001870;28;20233;-62
2022/12/07 01:16:07;;;;;;;27.33;13.93;;;;;;;;;;5012605;28;20210;-62
2022/12/07 01:18:36;;;;;;;25.03;13.63;;;;;;;;;;5003110;28;20207;-62
2022/12/07 01:21:09;;;;;;;29.60;13.63;;;;;;;;;;5004428;28;20211;-62
2022/12/07 01:23:37;;;;;;;25.33;15.33;;;;;;;;;;5005937;28;20254;-63
2022/12/07 01:26:06;;;;;;;25.23;14.87;;;;;;;;;;5006882;28;20226;-62
2022/12/07 01:28:33;;;;;;;27.67;19.17;;;;;;;;;;5006735;28;20221;-64
2022/12/07 01:31:05;;;;;;;26.30;16.50;;;;;;;;;;4994970;28;20226;-62
2022/12/07 01:33:34;;;;;;;24.90;15.40;;;;;;;;;;4987736;28;20276;-62
2022/12/07 01:36:06;;;;;;;30.50;17.07;;;;;;;;;;5005863;28;20209;-64
2022/12/07 01:38:33;;;;;;;24.50;14.27;;;;;;;;;;4987817;28;21966;-63
2022/12/07 01:41:02;;;;;;;26.73;16.20;;;;;;;;;;4982603;28;20306;-63
2022/12/07 01:43:31;;;;;;;22.87;13.67;;;;;;;;;;5004689;28;20211;-63
2022/12/07 01:45:59;;;;;;;22.90;14.33;;;;;;;;;;4979888;28;20215;-63
2022/12/07 01:48:29;;;;;;;22.27;14.57;;;;;;;;;;4981007;28;20207;-63
2022/12/07 01:51:00;;;;;;;21.73;14.67;;;;;;;;;;5004910;28;20246;-63
2022/12/07 01:53:30;;;;;;;21.57;14.00;;;;;;;;;;4984692;28;20258;-64
2022/12/07 01:55:58;;;;;;;23.23;15.17;;;;;;;;;;4988706;28;20209;-64
2022/12/07 01:58:26;;;;;;;27.07;16.40;;;;;;;;;;4996102;28;20208;-62
2022/12/07 02:00:53;;;;;;;29.90;16.20;;;;;;;;;;4987487;28;20302;-63
2022/12/07 02:03:30;;;;;;;27.73;16.47;;;;;;;;;;4984697;28;23178;-63
2022/12/07 02:05:59;;;;;;;30.23;16.77;;;;;;;;;;5004639;28;20211;-62
2022/12/07 02:08:26;;;;;;;26.90;16.47;;;;;;;;;;4984352;28;20343;-62
2022/12/07 02:10:54;;;;;;;27.77;14.67;;;;;;;;;;4996266;28;20226;-63
2022/12/07 02:13:26;;;;;;;33.63;14.43;;;;;;;;;;5000157;28;20980;-63
2022/12/07 02:16:22;;;;;;;33.33;13.00;;;;;;;;;;4985338;28;20648;-63
2022/12/07 02:18:59;;;;;;;28.60;11.90;;;;;;;;;;4982002;28;20341;-63
2022/12/07 02:21:29;;;;;;;33.07;11.63;;;;;;;;;;4981756;28;20210;-63
2022/12/07 02:24:06;;;;;;;20.70;12.30;;;;;;;;;;4978853;28;20794;-63
2022/12/07 02:26:53;;;;;;;23.23;12.73;;;;;;;;;;4980394;28;20219;-62
2022/12/07 02:29:25;;;;;;;19.70;10.50;;;;;;;;;;5004671;28;20697;-62
2022/12/07 02:32:01;;;;;;;20.93;11.63;;;;;;;;;;5000229;28;20323;-63
2022/12/07 02:34:40;;;;;;;19.50;13.00;;;;;;;;;;4983789;28;22543;-64
2022/12/07 02:37:27;;;;;;;13.17;9.17;;;;;;;;;;5006316;28;20306;-62
2022/12/07 02:40:18;;;;;;;12.37;8.90;;;;;;;;;;5003095;28;20209;-62
2022/12/07 02:42:51;;;;;;;12.40;8.43;;;;;;;;;;5001107;28;20295;-62
2022/12/07 02:45:21;;;;;;;13.57;9.70;;;;;;;;;;4998639;28;20235;-62
2022/12/07 02:47:51;;;;;;;12.60;8.67;;;;;;;;;;4992803;28;20207;-63
2022/12/07 02:50:20;;;;;;;12.70;9.17;;;;;;;;;;4984182;28;20305;-63
2022/12/07 02:52:47;;;;;;;13.93;9.13;;;;;;;;;;4981410;28;20947;-62
2022/12/07 02:55:17;;;;;;;22.43;12.63;;;;;;;;;;4976726;28;20227;-63
2022/12/07 02:58:04;;;;;;;16.60;9.97;;;;;;;;;;4994987;28;20311;-62
2022/12/07 03:00:33;;;;;;;11.90;9.13;;;;;;;;;;5003953;28;20210;-62
2022/12/07 03:03:04;;;;;;;11.33;9.07;;;;;;;;;;5003508;28;20215;-62
2022/12/07 03:05:35;;;;;;;12.97;9.70;;;;;;;;;;5012419;28;20226;-62
2022/12/07 03:08:02;;;;;;;14.87;9.57;;;;;;;;;;5002451;28;20764;-62
2022/12/07 03:10:48;;;;;;;11.77;8.47;;;;;;;;;;5014113;28;20206;-63
2022/12/07 03:13:26;;;;;;;12.67;9.63;;;;;;;;;;5003029;28;20545;-62
2022/12/07 03:16:03;;;;;;;13.30;9.80;;;;;;;;;;5002336;28;20234;-65
2022/12/07 03:18:32;;;;;;;14.17;10.17;;;;;;;;;;5008986;28;20263;-65
2022/12/07 03:21:02;;;;;;;13.47;9.83;;;;;;;;;;5011147;28;20300;-65
2022/12/07 03:23:33;;;;;;;15.03;10.80;;;;;;;;;;4980890;28;20221;-64
2022/12/07 03:26:01;;;;;;;15.40;10.63;;;;;;;;;;4991646;28;20211;-63
2022/12/07 03:28:32;;;;;;;16.13;11.63;;;;;;;;;;4986014;28;20938;-62
2022/12/07 03:31:06;;;;;;;14.80;10.67;;;;;;;;;;4984327;28;20249;-61
2022/12/07 03:33:41;;;;;;;12.57;9.93;;;;;;;;;;5001060;28;21185;-61
2022/12/07 03:36:11;;;;;;;12.77;10.07;;;;;;;;;;4998255;28;20360;-61
2022/12/07 03:38:47;;;;;;;12.70;10.37;;;;;;;;;;5005319;28;20304;-62
2022/12/07 03:41:30;;;;;;;14.20;11.43;;;;;;;;;;5005009;28;20576;-63
2022/12/07 03:43:58;;;;;;;15.00;10.40;;;;;;;;;;4988725;28;20281;-64
2022/12/07 03:46:28;;;;;;;12.47;10.67;;;;;;;;;;5000513;28;20198;-63
2022/12/07 03:49:00;;;;;;;13.17;10.23;;;;;;;;;;4990335;28;20215;-63
2022/12/07 03:51:27;;;;;;;14.63;10.67;;;;;;;;;;4985893;28;20915;-62
2022/12/07 03:54:01;;;;;;;14.83;11.17;;;;;;;;;;4984077;28;20265;-64
2022/12/07 03:56:29;;;;;;;14.97;11.40;;;;;;;;;;4989913;28;20592;-63
2022/12/07 03:58:56;;;;;;;13.40;10.43;;;;;;;;;;5001721;28;20213;-62
2022/12/07 04:01:25;;;;;;;13.03;10.23;;;;;;;;;;5006896;28;20304;-63
2022/12/07 04:03:52;;;;;;;13.83;10.17;;;;;;;;;;4982477;28;20238;-64
2022/12/07 04:06:20;;;;;;;19.57;13.10;;;;;;;;;;5001814;28;20293;-63
2022/12/07 04:08:47;;;;;;;13.03;10.50;;;;;;;;;;5004516;28;20511;-63
2022/12/07 04:11:14;;;;;;;12.47;9.90;;;;;;;;;;4983616;28;20248;-64
2022/12/07 04:16:28;;;;;;;14.73;11.97;;;;;;;;;;5001825;28;20744;-63
2022/12/07 04:18:55;;;;;;;13.90;10.60;;;;;;;;;;4993656;28;20486;-62
2022/12/07 04:21:23;;;;;;;14.43;10.40;;;;;;;;;;5005964;28;20202;-63
2022/12/07 04:23:50;;;;;;;13.30;10.27;;;;;;;;;;4980626;28;20227;-63
2022/12/07 04:26:18;;;;;;;15.03;11.27;;;;;;;;;;4982444;28;20611;-62
2022/12/07 04:28:45;;;;;;;15.37;11.70;;;;;;;;;;5009877;28;20319;-62
2022/12/07 04:31:12;;;;;;;16.47;11.77;;;;;;;;;;4981543;28;20221;-64
2022/12/07 04:33:40;;;;;;;13.23;10.30;;;;;;;;;;4988939;28;20227;-63
2022/12/07 04:36:07;;;;;;;13.40;10.17;;;;;;;;;;4986534;28;20284;-64
2022/12/07 04:38:35;;;;;;;13.97;11.03;;;;;;;;;;4985173;28;20227;-64
2022/12/07 04:41:06;;;;;;;13.87;11.10;;;;;;;;;;4991074;28;20265;-64
2022/12/07 04:43:35;;;;;;;14.87;11.73;;;;;;;;;;4982097;28;20332;-62
2022/12/07 04:46:02;;;;;;;14.03;11.03;;;;;;;;;;4986383;28;20301;-64
2022/12/07 04:48:30;;;;;;;12.50;9.93;;;;;;;;;;4979165;28;20218;-61
2022/12/07 04:50:57;;;;;;;16.93;12.60;;;;;;;;;;4996233;28;20239;-64
2022/12/07 04:53:24;;;;;;;17.87;12.43;;;;;;;;;;4997663;28;20227;-64
2022/12/07 04:55:52;;;;;;;16.00;11.90;;;;;;;;;;4981069;28;20206;-64
2022/12/07 04:58:19;;;;;;;16.97;12.47;;;;;;;;;;4989070;28;20211;-63
2022/12/07 05:00:47;;;;;;;16.07;12.60;;;;;;;;;;5005993;28;20198;-62
2022/12/07 05:03:15;;;;;;;15.83;11.60;;;;;;;;;;4992303;28;20217;-62
2022/12/07 05:05:43;;;;;;;17.83;11.17;;;;;;;;;;5025658;28;20218;-62
2022/12/07 05:08:10;;;;;;;17.33;12.20;;;;;;;;;;5023250;28;20662;-62
2022/12/07 05:10:37;;;;;;;15.13;10.70;;;;;;;;;;4998165;28;20203;-62
2022/12/07 05:13:05;;;;;;;15.20;11.10;;;;;;;;;;5011583;28;20250;-62
2022/12/07 05:15:32;;;;;;;13.17;10.17;;;;;;;;;;4993556;28;20373;-63
2022/12/07 05:18:00;;;;;;;16.10;10.87;;;;;;;;;;5010853;28;20321;-62
2022/12/07 05:20:29;;;;;;;12.40;10.47;;;;;;;;;;5011645;28;20286;-62
2022/12/07 05:22:58;;;;;;;13.53;9.83;;;;;;;;;;5024724;28;20344;-62
2022/12/07 05:25:25;;;;;;;11.93;10.20;;;;;;;;;;5021283;28;20308;-62
2022/12/07 05:27:52;;;;;;;13.47;10.63;;;;;;;;;;5002328;28;20238;-62
2022/12/07 05:30:20;;;;;;;14.67;10.40;;;;;;;;;;5007633;28;20198;-61
2022/12/07 05:32:48;;;;;;;11.70;9.47;;;;;;;;;;5018287;28;20366;-62
2022/12/07 05:35:15;;;;;;;13.03;9.93;;;;;;;;;;5006144;28;20305;-63
2022/12/07 05:37:43;;;;;;;13.20;9.47;;;;;;;;;;5010130;28;20417;-63
2022/12/07 05:40:10;;;;;;;13.10;9.80;;;;;;;;;;5017884;28;20298;-62
2022/12/07 05:42:38;;;;;;;14.47;11.27;;;;;;;;;;4999692;28;20215;-62
2022/12/07 05:45:05;;;;;;;17.07;12.10;;;;;;;;;;4983286;28;20973;-62
2022/12/07 05:47:33;;;;;;;18.90;13.03;;;;;;;;;;4982011;28;20208;-62
2022/12/07 05:50:00;;;;;;;16.37;12.03;;;;;;;;;;4984317;28;20199;-61
2022/12/07 05:52:28;;;;;;;11.73;9.27;;;;;;;;;;5007551;28;20230;-63
2022/12/07 05:54:56;;;;;;;13.10;10.23;;;;;;;;;;5005845;28;20962;-61
2022/12/07 05:57:23;;;;;;;11.87;9.83;;;;;;;;;;4992917;28;20298;-62
2022/12/07 05:59:51;;;;;;;11.00;9.83;;;;;;;;;;5004318;28;20211;-61
2022/12/07 06:02:18;;;;;;;11.87;9.53;;;;;;;;;;5001983;28;20328;-64
2022/12/07 06:04:47;;;;;;;10.67;8.67;;;;;;;;;;5007543;28;20226;-64
2022/12/07 06:07:15;;;;;;;12.47;9.97;;;;;;;;;;4988770;28;20715;-63
2022/12/07 06:09:44;;;;;;;12.40;9.90;;;;;;;;;;5013277;28;20215;-64
2022/12/07 06:14:59;;;;;;;15.10;10.30;;;;;;;;;;5000865;28;20254;-62
2022/12/07 06:17:26;;;;;;;12.50;9.17;;;;;;;;;;5002565;28;20210;-64
2022/12/07 06:19:53;;;;;;;12.93;10.10;;;;;;;;;;5002143;28;20238;-63
2022/12/07 06:22:21;;;;;;;12.40;9.93;;;;;;;;;;4986073;28;20648;-63
2022/12/07 06:24:48;;;;;;;11.40;9.40;;;;;;;;;;5004793;28;20743;-62
2022/12/07 06:27:16;;;;;;;11.20;8.53;;;;;;;;;;4984612;28;20277;-62
2022/12/07 06:29:43;;;;;;;11.37;8.47;;;;;;;;;;4983325;28;20388;-61
2022/12/07 06:32:11;;;;;;;10.23;8.40;;;;;;;;;;4997504;28;20458;-62
2022/12/07 06:34:38;;;;;;;7.87;6.73;;;;;;;;;;5008349;28;20219;-64
2022/12/07 06:37:06;;;;;;;9.37;7.83;;;;;;;;;;4983072;28;20217;-62
2022/12/07 06:39:33;;;;;;;7.77;6.97;;;;;;;;;;4985077;28;20235;-62
2022/12/07 06:42:01;;;;;;;7.00;5.13;;;;;;;;;;5002738;28;20217;-62
2022/12/07 06:44:29;;;;;;;6.90;6.13;;;;;;;;;;5006877;28;20222;-61
2022/12/07 06:46:56;;;;;;;6.47;5.57;;;;;;;;;;5007586;28;20285;-63
2022/12/07 06:49:44;;;;;;;6.00;5.37;;;;;;;;;;4994090;28;20221;-63
2022/12/07 06:52:11;;;;;;;7.10;5.77;;;;;;;;;;5004818;28;20258;-62
2022/12/07 06:54:38;;;;;;;6.43;5.60;;;;;;;;;;4988779;28;20231;-63
2022/12/07 06:57:06;;;;;;;7.30;6.43;;;;;;;;;;5001187;28;20692;-62
2022/12/07 06:59:33;;;;;;;7.73;6.50;;;;;;;;;;5006250;28;20210;-62
2022/12/07 07:02:00;;;;;;;11.27;7.80;;;;;;;;;;5006687;28;20243;-62
2022/12/07 07:04:28;;;;;;;8.30;7.17;;;;;;;;;;4999727;28;20245;-63
2022/12/07 07:06:55;;;;;;;8.77;7.87;;;;;;;;;;5016437;28;20243;-63
2022/12/07 07:09:26;;;;;;;9.67;8.10;;;;;;;;;;5008765;28;20762;-63
2022/12/07 07:11:54;;;;;;;9.37;7.17;;;;;;;;;;5025746;28;20234;-63
2022/12/07 07:14:21;;;;;;;10.60;8.20;;;;;;;;;;5019004;28;20736;-62
2022/12/07 07:16:49;;;;;;;10.40;8.30;;;;;;;;;;4992832;28;20830;-62
2022/12/07 07:19:16;;;;;;;12.57;9.33;;;;;;;;;;5010848;28;20203;-62
2022/12/07 07:21:43;;;;;;;15.00;10.23;;;;;;;;;;5000538;28;20239;-62
2022/12/07 07:24:11;;;;;;;16.60;11.50;;;;;;;;;;4990864;28;20229;-63
2022/12/07 07:26:38;;;;;;;13.87;10.37;;;;;;;;;;4985032;28;21158;-63
2022/12/07 07:29:06;;;;;;;13.47;10.13;;;;;;;;;;5010201;28;20207;-62
2022/12/07 07:31:35;;;;;;;15.27;9.93;;;;;;;;;;5005519;28;20341;-62
2022/12/07 07:34:02;;;;;;;15.00;10.20;;;;;;;;;;5000433;28;21962;-63
2022/12/07 07:36:30;;;;;;;17.00;10.70;;;;;;;;;;4990783;28;20207;-64
2022/12/07 07:38:57;;;;;;;16.87;9.47;;;;;;;;;;4984096;28;20308;-63
2022/12/07 07:41:25;;;;;;;16.87;10.10;;;;;;;;;;4987417;28;20243;-62
2022/12/07 07:43:53;;;;;;;14.60;9.63;;;;;;;;;;4995475;28;20336;-62
2022/12/07 07:46:20;;;;;;;14.17;10.20;;;;;;;;;;4996467;28;20683;-62
2022/12/07 07:48:47;;;;;;;14.83;10.33;;;;;;;;;;5000723;28;20211;-63
2022/12/07 07:51:15;;;;;;;15.67;10.90;;;;;;;;;;4979028;28;20227;-62
2022/12/07 07:53:42;;;;;;;15.13;10.43;;;;;;;;;;5003260;28;20249;-63
2022/12/07 07:56:10;;;;;;;14.50;11.20;;;;;;;;;;4982679;28;20214;-62
2022/12/07 07:58:39;;;;;;;14.40;11.40;;;;;;;;;;5006585;28;20257;-62
2022/12/07 08:01:07;;;;;;;14.90;10.27;;;;;;;;;;4988690;28;20294;-62
2022/12/07 08:03:34;;;;;;;13.23;9.60;;;;;;;;;;4982714;28;20230;-62
2022/12/07 08:06:05;;;;;;;12.73;9.37;;;;;;;;;;4984448;28;20304;-62
2022/12/07 08:08:33;;;;;;;13.07;9.43;;;;;;;;;;5000211;28;20207;-63
2022/12/07 08:11:01;;;;;;;12.50;9.63;;;;;;;;;;5017536;28;20889;-62
2022/12/07 08:13:28;;;;;;;13.47;9.63;;;;;;;;;;5001945;28;20716;-63
2022/12/07 08:15:58;;;;;;;11.43;8.87;;;;;;;;;;5006722;28;20693;-63
2022/12/07 08:18:26;;;;;;;9.10;7.70;;;;;;;;;;5001856;28;20676;-63
2022/12/07 08:20:59;;;;;;;10.60;8.13;;;;;;;;;;5006385;28;20203;-62
2022/12/07 08:23:26;;;;;;;9.03;7.30;;;;;;;;;;5010228;28;20298;-62
2022/12/07 08:26:06;;;;;;;7.33;5.90;;;;;;;;;;5003947;28;20207;-62
2022/12/07 08:28:33;;;;;;;8.07;5.77;;;;;;;;;;5004163;28;20599;-61
2022/12/07 08:31:01;;;;;;;5.77;5.10;;;;;;;;;;5000273;28;20207;-64
2022/12/07 08:33:29;;;;;;;5.23;4.60;;;;;;;;;;4999030;28;20325;-62
2022/12/07 08:36:00;;;;;;;3.90;3.60;;;;;;;;;;5008540;28;20329;-63
2022/12/07 08:38:28;;;;;;;3.17;2.87;;;;;;;;;;5004001;28;20744;-63
2022/12/07 08:40:59;;;;;;;3.70;2.63;;;;;;;;;;4989024;28;20199;-62
2022/12/07 08:43:26;;;;;;;2.50;2.30;;;;;;;;;;5007237;28;20217;-62
2022/12/07 08:46:14;;;;;;;2.90;2.70;;;;;;;;;;4982259;28;20211;-63
2022/12/07 08:48:45;;;;;;;2.70;2.50;;;;;;;;;;5001298;28;20731;-62
2022/12/07 08:51:13;;;;;;;2.90;2.70;;;;;;;;;;4987421;28;20301;-61
2022/12/07 08:53:40;;;;;;;2.90;2.70;;;;;;;;;;5002760;28;20266;-63
2022/12/07 08:56:08;;;;;;;3.13;2.93;;;;;;;;;;5009618;28;20211;-63
2022/12/07 08:58:39;;;;;;;3.80;3.00;;;;;;;;;;4984022;28;20219;-62
2022/12/07 09:01:06;;;;;;;3.53;3.23;;;;;;;;;;5008371;28;20571;-62
2022/12/07 09:03:34;;;;;;;4.00;3.67;;;;;;;;;;4986593;28;20222;-62
2022/12/07 09:06:01;;;;;;;6.70;4.13;;;;;;;;;;4999456;28;20203;-62
2022/12/07 09:08:31;;;;;;;4.63;4.13;;;;;;;;;;5018874;28;20256;-62
2022/12/07 09:10:59;;;;;;;4.83;4.00;;;;;;;;;;5008713;28;20234;-62
2022/12/07 09:13:26;;;;;;;5.27;4.10;;;;;;;;;;4995823;28;20257;-62
2022/12/07 09:15:54;;;;;;;3.80;3.50;;;;;;;;;;4992302;28;20199;-62
2022/12/07 09:18:21;;;;;;;3.53;3.23;;;;;;;;;;5010709;28;20218;-62
2022/12/07 09:20:48;;;;;;;4.13;3.70;;;;;;;;;;5005863;28;20613;-61
2022/12/07 09:23:16;;;;;;;3.47;3.17;;;;;;;;;;5006829;28;20296;-62
2022/12/07 09:25:43;;;;;;;3.87;3.33;;;;;;;;;;5021855;28;21069;-64
2022/12/07 09:28:11;;;;;;;3.53;3.23;;;;;;;;;;5015887;28;20329;-63
2022/12/07 09:30:38;;;;;;;3.40;3.10;;;;;;;;;;5009759;28;20213;-63
2022/12/07 09:33:26;;;;;;;3.73;3.43;;;;;;;;;;4980148;28;20223;-62
2022/12/07 09:35:53;;;;;;;5.27;4.87;;;;;;;;;;4978180;28;20215;-62
2022/12/07 09:38:21;;;;;;;10.00;9.00;;;;;;;;;;4979313;28;20230;-64
2022/12/07 09:40:48;;;;;;;4.67;3.70;;;;;;;;;;5000985;28;20221;-64
2022/12/07 09:43:20;;;;;;;7.40;6.80;;;;;;;;;;4987559;28;20219;-62
2022/12/07 09:45:49;;;;;;;4.83;4.43;;;;;;;;;;4997740;28;20199;-63
2022/12/07 09:48:37;;;;;;;5.77;5.00;;;;;;;;;;4977440;28;20749;-63
2022/12/07 09:51:14;;;;;;;3.50;3.20;;;;;;;;;;4976304;28;20218;-62
2022/12/07 09:53:49;;;;;;;3.43;3.10;;;;;;;;;;4998275;28;20236;-63
2022/12/07 09:56:18;;;;;;;6.57;4.37;;;;;;;;;;4985034;28;20210;-62
2022/12/07 09:58:46;;;;;;;3.47;3.00;;;;;;;;;;4995736;28;20226;-62
2022/12/07 10:01:18;;;;;;;3.17;2.90;;;;;;;;;;5004452;28;20222;-62
2022/12/07 10:03:56;;;;;;;3.70;3.40;;;;;;;;;;4997595;28;20330;-62
2022/12/07 10:06:23;;;;;;;6.53;4.77;;;;;;;;;;5002297;28;20329;-62
2022/12/07 10:08:50;;;;;;;3.77;2.80;;;;;;;;;;4985905;28;20198;-63
2022/12/07 10:11:18;;;;;;;16.70;8.73;;;;;;;;;;5000082;28;20321;-63
2022/12/07 10:13:53;;;;;;;14.23;8.03;;;;;;;;;;4986520;28;20312;-63
2022/12/07 10:16:37;;;;;;;18.60;11.47;;;;;;;;;;4992570;28;20609;-61
2022/12/07 10:19:21;;;;;;;8.77;5.17;;;;;;;;;;4993410;28;20199;-61
2022/12/07 10:22:03;;;;;;;10.93;7.30;;;;;;;;;;4997965;28;20235;-62
2022/12/07 10:24:31;;;;;;;6.63;3.73;;;;;;;;;;5043138;22;20295;-79
2022/12/07 10:26:58;;;;;;;5.07;4.27;;;;;;;;;;5031174;28;20208;-78
2022/12/07 10:29:33;;;;;;;4.80;4.40;;;;;;;;;;5054498;28;20943;-80
2022/12/07 10:32:25;;;;;;;10.37;6.73;;;;;;;;;;5051881;28;20209;-79
2022/12/07 10:35:12;;;;;;;6.10;4.80;;;;;;;;;;5035776;28;20257;-82
2022/12/07 10:37:42;;;;;;;7.17;5.30;;;;;;;;;;5022415;28;20202;-83
2022/12/07 10:40:24;;;;;;;5.60;4.23;;;;;;;;;;5038079;28;20348;-78
2022/12/07 10:43:05;;;;;;;4.30;3.70;;;;;;;;;;5038260;28;20230;-76
2022/12/07 10:45:33;;;;;;;7.37;3.83;;;;;;;;;;5037166;28;20342;-80
2022/12/07 10:48:08;;;;;;;4.43;3.97;;;;;;;;;;5032375;28;20230;-80
2022/12/07 10:50:54;;;;;;;5.00;4.50;;;;;;;;;;5042674;28;20209;-79
2022/12/07 10:53:29;;;;;;;4.23;3.83;;;;;;;;;;5046379;28;20239;-79
2022/12/07 10:56:03;;;;;;;4.53;3.47;;;;;;;;;;5045006;28;20606;-80
2022/12/07 10:58:30;;;;;;;3.97;3.57;;;;;;;;;;5029986;28;20205;-78
2022/12/07 11:00:57;;;;;;;3.80;2.97;;;;;;;;;;5034570;28;20198;-78
2022/12/07 11:03:24;;;;;;;3.23;2.87;;;;;;;;;;5027142;28;20297;-81
2022/12/07 11:05:55;;;;;;;3.50;3.20;;;;;;;;;;5029072;28;20220;-81
2022/12/07 11:08:26;;;;;;;3.03;2.80;;;;;;;;;;5044013;28;20209;-81
2022/12/07 11:10:57;;;;;;;3.87;2.80;;;;;;;;;;5043712;28;20338;-81
2022/12/07 11:13:45;;;;;;;3.77;3.00;;;;;;;;;;5037828;28;20222;-80
2022/12/07 11:16:13;;;;;;;2.80;2.60;;;;;;;;;;5034829;28;20703;-80
2022/12/07 11:18:40;;;;;;;2.97;2.67;;;;;;;;;;5049613;28;20202;-81
2022/12/07 11:21:26;;;;;;;2.77;2.47;;;;;;;;;;5061174;28;20253;-79
2022/12/07 11:24:07;;;;;;;2.40;2.20;;;;;;;;;;5056166;28;20239;-79
2022/12/07 11:26:40;;;;;;;2.87;2.60;;;;;;;;;;5061155;28;20241;-80
2022/12/07 11:29:20;;;;;;;2.73;2.53;;;;;;;;;;5058682;28;20209;-83
2022/12/07 11:31:47;;;;;;;2.67;2.47;;;;;;;;;;5047328;28;20213;-81
2022/12/07 11:34:28;;;;;;;3.07;2.77;;;;;;;;;;5061719;28;20262;-78
2022/12/07 11:36:57;;;;;;;4.20;2.80;;;;;;;;;;5054278;28;20209;-77
2022/12/07 11:39:45;;;;;;;2.60;2.40;;;;;;;;;;5039550;28;20201;-78
2022/12/07 11:42:19;;;;;;;2.50;2.30;;;;;;;;;;5016925;28;20209;-78
2022/12/07 11:44:53;;;;;;;2.53;2.33;;;;;;;;;;5040953;28;21102;-79
2022/12/07 11:47:28;;;;;;;2.93;2.70;;;;;;;;;;5037440;28;20213;-78
2022/12/07 11:49:55;;;;;;;2.83;2.37;;;;;;;;;;5041458;28;20201;-80
2022/12/07 11:52:27;;;;;;;2.67;2.47;;;;;;;;;;5042103;28;20206;-78
2022/12/07 11:54:55;;;;;;;2.20;2.10;;;;;;;;;;5036863;28;20240;-77
2022/12/07 11:57:42;;;;;;;2.10;2.00;;;;;;;;;;5046480;28;20203;-78
2022/12/07 12:00:14;;;;;;;2.80;2.40;;;;;;;;;;5044350;28;20207;-77
2022/12/07 12:02:45;;;;;;;4.17;2.33;;;;;;;;;;5035203;28;20628;-79
2022/12/07 12:05:21;;;;;;;2.70;2.47;;;;;;;;;;5039073;28;20300;-78
2022/12/07 12:07:54;;;;;;;2.50;2.30;;;;;;;;;;5034054;28;20288;-79
2022/12/07 12:10:47;;;;;;;2.10;1.90;;;;;;;;;;5023233;28;23035;-78
2022/12/07 12:13:33;;;;;;;2.83;2.63;;;;;;;;;;5040707;28;20610;-79
2022/12/07 12:16:39;;;;;;;3.07;2.87;;;;;;;;;;5041088;28;20209;-82
2022/12/07 12:19:22;;;;;;;2.57;2.37;;;;;;;;;;5047777;28;20213;-80
2022/12/07 12:21:50;;;;;;;4.17;3.17;;;;;;;;;;5018470;28;20208;-79
2022/12/07 12:24:25;;;;;;;2.73;2.53;;;;;;;;;;5046015;28;20233;-80
2022/12/07 12:27:02;;;;;;;2.50;2.30;;;;;;;;;;5037083;28;20309;-77
2022/12/07 12:29:35;;;;;;;2.50;2.30;;;;;;;;;;5033989;28;20214;-80
2022/12/07 12:32:08;;;;;;;3.37;2.93;;;;;;;;;;5036622;28;20205;-80
2022/12/07 12:34:40;;;;;;;2.80;2.47;;;;;;;;;;5027248;28;20256;-79
2022/12/07 12:37:34;;;;;;;2.90;2.60;;;;;;;;;;5045400;28;20209;-79
2022/12/07 12:40:16;;;;;;;2.87;2.57;;;;;;;;;;5042632;28;20205;-79
2022/12/07 12:42:45;;;;;;;2.27;2.10;;;;;;;;;;5035449;28;20228;-80
2022/12/07 12:45:20;;;;;;;8.93;5.23;;;;;;;;;;5018275;28;20218;-80
2022/12/07 12:48:07;;;;;;;2.97;2.40;;;;;;;;;;5023831;28;20219;-76
2022/12/07 12:50:38;;;;;;;3.53;2.97;;;;;;;;;;5041208;28;20205;-78
2022/12/07 12:53:13;;;;;;;2.13;2.03;;;;;;;;;;5050384;28;20233;-82
2022/12/07 12:55:43;;;;;;;2.53;2.33;;;;;;;;;;5037714;28;20205;-77
2022/12/07 12:58:20;;;;;;;3.33;2.47;;;;;;;;;;5039021;28;20206;-82
2022/12/07 13:00:48;;;;;;;3.57;2.60;;;;;;;;;;5041892;28;20209;-79
2022/12/07 13:03:27;;;;;;;2.73;2.53;;;;;;;;;;5043454;28;20256;-76
2022/12/07 13:06:27;;;;;;;2.70;2.50;;;;;;;;;;5053655;28;20201;-80
2022/12/07 13:08:57;;;;;;;2.93;2.73;;;;;;;;;;4998066;28;20204;-80
2022/12/07 13:11:36;;;;;;;3.70;3.17;;;;;;;;;;5055424;28;20572;-80
2022/12/07 13:14:21;;;;;;;3.80;3.40;;;;;;;;;;5059815;28;20230;-78
2022/12/07 13:16:49;;;;;;;3.60;3.30;;;;;;;;;;5026428;28;20663;-81
2022/12/07 13:19:35;;;;;;;3.70;3.40;;;;;;;;;;5047311;28;20575;-81
2022/12/07 13:22:02;;;;;;;4.57;4.17;;;;;;;;;;5056963;28;20202;-76
2022/12/07 13:24:31;;;;;;;3.57;2.60;;;;;;;;;;5055570;28;20427;-81
2022/12/07 13:26:59;;;;;;;3.00;2.80;;;;;;;;;;5060883;28;20288;-81
2022/12/07 13:29:26;;;;;;;3.50;3.00;;;;;;;;;;5046412;28;20198;-80
2022/12/07 13:31:58;;;;;;;3.37;2.90;;;;;;;;;;5033228;28;20213;-76
2022/12/07 13:34:32;;;;;;;3.73;2.57;;;;;;;;;;5034084;28;20233;-78
2022/12/07 13:37:05;;;;;;;2.80;2.60;;;;;;;;;;5036157;28;20208;-79
2022/12/07 13:39:34;;;;;;;3.07;2.73;;;;;;;;;;5043799;28;20547;-75
2022/12/07 13:42:21;;;;;;;2.93;2.60;;;;;;;;;;5036136;28;20210;-79
2022/12/07 13:44:48;;;;;;;2.77;2.57;;;;;;;;;;5036413;28;20209;-79
2022/12/07 13:47:18;;;;;;;3.20;2.90;;;;;;;;;;5036074;28;20213;-80
2022/12/07 13:49:53;;;;;;;2.57;2.37;;;;;;;;;;5034304;28;20701;-81
2022/12/07 13:52:28;;;;;;;3.87;2.17;;;;;;;;;;5038084;28;20232;-79
2022/12/07 13:54:55;;;;;;;2.40;2.20;;;;;;;;;;5032740;28;20587;-80
2022/12/07 13:57:23;;;;;;;2.53;2.30;;;;;;;;;;5034113;28;20206;-79
2022/12/07 13:59:50;;;;;;;3.20;2.23;;;;;;;;;;5044947;28;20223;-78
2022/12/07 14:02:21;;;;;;;2.03;1.93;;;;;;;;;;5032091;28;20208;-81
2022/12/07 14:04:50;;;;;;;1.90;1.80;;;;;;;;;;5045861;28;20205;-78
2022/12/07 14:07:22;;;;;;;1.90;1.80;;;;;;;;;;5040045;28;20862;-78
2022/12/07 14:09:56;;;;;;;2.20;2.03;;;;;;;;;;5040454;28;20201;-78
2022/12/07 14:12:24;;;;;;;1.90;1.80;;;;;;;;;;5036505;28;20211;-78
2022/12/07 14:14:52;;;;;;;1.80;1.70;;;;;;;;;;5034357;28;20229;-78
2022/12/07 14:17:24;;;;;;;1.93;1.83;;;;;;;;;;5027516;28;20220;-76
2022/12/07 14:20:04;;;;;;;2.10;2.00;;;;;;;;;;5034780;28;20705;-78
2022/12/07 14:22:31;;;;;;;1.80;1.70;;;;;;;;;;5038547;28;20320;-78
2022/12/07 14:25:01;;;;;;;2.10;2.00;;;;;;;;;;5023708;28;20213;-78
2022/12/07 14:27:34;;;;;;;2.20;2.00;;;;;;;;;;5025340;28;20214;-77
2022/12/07 14:30:01;;;;;;;1.97;1.87;;;;;;;;;;5027762;28;20804;-77
2022/12/07 14:32:30;;;;;;;2.00;1.80;;;;;;;;;;5036942;28;20993;-78
2022/12/07 14:34:58;;;;;;;2.40;2.20;;;;;;;;;;5035522;28;20593;-79
2022/12/07 14:37:25;;;;;;;2.50;2.30;;;;;;;;;;5035603;28;20202;-77
2022/12/07 14:39:53;;;;;;;2.80;2.60;;;;;;;;;;5043772;28;20229;-80
2022/12/07 14:42:21;;;;;;;2.70;2.50;;;;;;;;;;5045399;28;20202;-78
2022/12/07 14:44:48;;;;;;;2.20;2.10;;;;;;;;;;5038221;28;20206;-77
2022/12/07 14:47:15;;;;;;;2.60;2.40;;;;;;;;;;5047595;28;20351;-79
2022/12/07 14:50:02;;;;;;;2.67;2.47;;;;;;;;;;5035814;28;20206;-78
2022/12/07 14:52:33;;;;;;;2.80;2.47;;;;;;;;;;5041074;28;20221;-79
2022/12/07 14:55:25;;;;;;;3.07;2.87;;;;;;;;;;5036761;28;20236;-79
2022/12/07 14:57:53;;;;;;;4.23;2.83;;;;;;;;;;5043509;28;20212;-80
2022/12/07 15:00:21;;;;;;;4.37;3.90;;;;;;;;;;5047710;28;20194;-80